sensor_id;sensor_type;location;lat;lon;timestamp;P1;durP1;ratioP1;P2;durP2;ratioP2
51527;SDS011;37612;51.768;21.590;2022-11-04T00:02:51;20.40;;;10.00;;
51527;SDS011;37612;51.768;21.590;2022-11-04T00:06:52;24.10;;;10.70;;
51527;SDS011;37612;51.768;21.590;2022-11-04T00:15:15;27.20;;;10.80;;
51527;SDS011;37612;51.768;21.590;2022-11-04T00:19:36;25.80;;;11.80;;
51527;SDS011;37612;51.768;21.590;2022-11-04T00:23:56;27.90;;;12.50;;
51527;SDS011;37612;51.768;21.590;2022-11-04T00:28:16;33.30;;;13.60;;
51527;SDS011;37612;51.768;21.590;2022-11-04T00:32:37;28.60;;;11.70;;
51527;SDS011;37612;51.768;21.590;2022-11-04T00:36:58;27.70;;;11.90;;
51527;SDS011;37612;51.768;21.590;2022-11-04T00:40:59;28.10;;;12.20;;
51527;SDS011;37612;51.768;21.590;2022-11-04T00:45:00;23.50;;;12.80;;
51527;SDS011;37612;51.768;21.590;2022-11-04T00:49:02;24.70;;;13.50;;
51527;SDS011;37612;51.768;21.590;2022-11-04T00:53:03;23.60;;;12.50;;
51527;SDS011;37612;51.768;21.590;2022-11-04T00:57:04;27.40;;;13.40;;
51527;SDS011;37612;51.768;21.590;2022-11-04T01:01:09;23.90;;;11.80;;
51527;SDS011;37612;51.768;21.590;2022-11-04T01:05:12;28.20;;;13.20;;
51527;SDS011;37612;51.768;21.590;2022-11-04T01:09:13;25.90;;;12.50;;
51527;SDS011;37612;51.768;21.590;2022-11-04T01:13:14;25.20;;;12.20;;
51527;SDS011;37612;51.768;21.590;2022-11-04T01:17:15;26.00;;;13.10;;
51527;SDS011;37612;51.768;21.590;2022-11-04T01:21:17;29.80;;;12.10;;
51527;SDS011;37612;51.768;21.590;2022-11-04T01:25:18;21.70;;;11.40;;
51527;SDS011;37612;51.768;21.590;2022-11-04T01:29:19;27.00;;;11.20;;
51527;SDS011;37612;51.768;21.590;2022-11-04T01:33:20;21.60;;;10.40;;
51527;SDS011;37612;51.768;21.590;2022-11-04T01:37:21;23.40;;;10.40;;
51527;SDS011;37612;51.768;21.590;2022-11-04T01:41:27;23.20;;;9.30;;
51527;SDS011;37612;51.768;21.590;2022-11-04T01:45:30;23.20;;;9.50;;
51527;SDS011;37612;51.768;21.590;2022-11-04T01:49:35;20.50;;;10.60;;
51527;SDS011;37612;51.768;21.590;2022-11-04T01:53:40;21.50;;;9.90;;
51527;SDS011;37612;51.768;21.590;2022-11-04T01:57:44;21.70;;;9.00;;
51527;SDS011;37612;51.768;21.590;2022-11-04T02:01:48;22.70;;;10.20;;
51527;SDS011;37612;51.768;21.590;2022-11-04T02:05:49;19.60;;;10.10;;
51527;SDS011;37612;51.768;21.590;2022-11-04T02:09:50;18.80;;;10.70;;
51527;SDS011;37612;51.768;21.590;2022-11-04T02:13:52;18.70;;;10.30;;
51527;SDS011;37612;51.768;21.590;2022-11-04T02:18:00;20.10;;;8.80;;
51527;SDS011;37612;51.768;21.590;2022-11-04T02:31:35;17.70;;;8.50;;
51527;SDS011;37612;51.768;21.590;2022-11-04T02:44:23;21.00;;;8.50;;
51527;SDS011;37612;51.768;21.590;2022-11-04T02:48:37;15.90;;;8.20;;
51527;SDS011;37612;51.768;21.590;2022-11-04T02:52:53;19.90;;;8.40;;
51527;SDS011;37612;51.768;21.590;2022-11-04T02:57:00;20.00;;;7.90;;
51527;SDS011;37612;51.768;21.590;2022-11-04T03:01:05;25.60;;;8.50;;
51527;SDS011;37612;51.768;21.590;2022-11-04T03:05:15;15.30;;;6.20;;
51527;SDS011;37612;51.768;21.590;2022-11-04T03:09:22;14.70;;;7.60;;
51527;SDS011;37612;51.768;21.590;2022-11-04T03:13:31;13.10;;;7.60;;
51527;SDS011;37612;51.768;21.590;2022-11-04T03:22:21;19.90;;;9.10;;
51527;SDS011;37612;51.768;21.590;2022-11-04T03:30:50;12.70;;;7.00;;
51527;SDS011;37612;51.768;21.590;2022-11-04T03:34:56;17.90;;;7.50;;
51527;SDS011;37612;51.768;21.590;2022-11-04T03:38:57;16.40;;;6.80;;
51527;SDS011;37612;51.768;21.590;2022-11-04T03:42:59;19.70;;;7.10;;
51527;SDS011;37612;51.768;21.590;2022-11-04T03:47:07;14.40;;;6.20;;
51527;SDS011;37612;51.768;21.590;2022-11-04T03:51:08;16.00;;;7.10;;
51527;SDS011;37612;51.768;21.590;2022-11-04T03:55:09;15.90;;;7.00;;
51527;SDS011;37612;51.768;21.590;2022-11-04T04:03:38;17.30;;;6.90;;
51527;SDS011;37612;51.768;21.590;2022-11-04T04:07:51;16.30;;;6.60;;
51527;SDS011;37612;51.768;21.590;2022-11-04T04:16:31;12.50;;;6.50;;
51527;SDS011;37612;51.768;21.590;2022-11-04T04:20:39;11.70;;;6.80;;
51527;SDS011;37612;51.768;21.590;2022-11-04T04:24:43;14.50;;;6.10;;
51527;SDS011;37612;51.768;21.590;2022-11-04T04:29:06;13.30;;;5.70;;
51527;SDS011;37612;51.768;21.590;2022-11-04T04:33:10;15.90;;;6.80;;
51527;SDS011;37612;51.768;21.590;2022-11-04T04:37:18;14.40;;;6.40;;
51527;SDS011;37612;51.768;21.590;2022-11-04T04:41:29;14.30;;;6.60;;
51527;SDS011;37612;51.768;21.590;2022-11-04T04:45:51;18.70;;;7.30;;
51527;SDS011;37612;51.768;21.590;2022-11-04T04:49:57;16.60;;;7.70;;
51527;SDS011;37612;51.768;21.590;2022-11-04T04:54:00;17.00;;;8.00;;
51527;SDS011;37612;51.768;21.590;2022-11-04T04:58:01;13.70;;;6.20;;
51527;SDS011;37612;51.768;21.590;2022-11-04T05:02:02;11.90;;;6.20;;
51527;SDS011;37612;51.768;21.590;2022-11-04T05:06:03;10.90;;;5.50;;
51527;SDS011;37612;51.768;21.590;2022-11-04T05:10:05;15.00;;;6.90;;
51527;SDS011;37612;51.768;21.590;2022-11-04T05:14:07;14.10;;;6.00;;
51527;SDS011;37612;51.768;21.590;2022-11-04T05:18:09;13.70;;;5.90;;
51527;SDS011;37612;51.768;21.590;2022-11-04T05:22:10;8.60;;;5.60;;
51527;SDS011;37612;51.768;21.590;2022-11-04T05:26:20;12.00;;;5.60;;
51527;SDS011;37612;51.768;21.590;2022-11-04T05:30:22;12.30;;;6.30;;
51527;SDS011;37612;51.768;21.590;2022-11-04T05:34:23;10.30;;;5.70;;
51527;SDS011;37612;51.768;21.590;2022-11-04T05:38:24;11.70;;;6.40;;
51527;SDS011;37612;51.768;21.590;2022-11-04T05:42:25;18.30;;;7.20;;
51527;SDS011;37612;51.768;21.590;2022-11-04T05:46:27;10.60;;;5.90;;
51527;SDS011;37612;51.768;21.590;2022-11-04T05:50:29;11.10;;;6.30;;
51527;SDS011;37612;51.768;21.590;2022-11-04T05:54:32;14.40;;;7.60;;
51527;SDS011;37612;51.768;21.590;2022-11-04T05:58:33;15.50;;;6.80;;
51527;SDS011;37612;51.768;21.590;2022-11-04T06:02:34;11.00;;;5.70;;
51527;SDS011;37612;51.768;21.590;2022-11-04T06:06:35;16.30;;;6.70;;
51527;SDS011;37612;51.768;21.590;2022-11-04T06:14:40;14.20;;;6.80;;
51527;SDS011;37612;51.768;21.590;2022-11-04T06:18:45;16.90;;;7.20;;
51527;SDS011;37612;51.768;21.590;2022-11-04T06:22:46;12.20;;;6.40;;
51527;SDS011;37612;51.768;21.590;2022-11-04T06:26:47;14.20;;;6.70;;
51527;SDS011;37612;51.768;21.590;2022-11-04T06:30:48;12.10;;;6.30;;
51527;SDS011;37612;51.768;21.590;2022-11-04T06:34:49;13.80;;;6.40;;
51527;SDS011;37612;51.768;21.590;2022-11-04T06:38:50;16.80;;;7.90;;
51527;SDS011;37612;51.768;21.590;2022-11-04T06:42:52;16.70;;;7.20;;
51527;SDS011;37612;51.768;21.590;2022-11-04T06:46:53;15.40;;;7.60;;
51527;SDS011;37612;51.768;21.590;2022-11-04T06:50:54;19.20;;;7.70;;
51527;SDS011;37612;51.768;21.590;2022-11-04T06:54:56;16.50;;;7.50;;
51527;SDS011;37612;51.768;21.590;2022-11-04T06:58:57;13.60;;;6.10;;
51527;SDS011;37612;51.768;21.590;2022-11-04T07:02:58;14.30;;;7.80;;
51527;SDS011;37612;51.768;21.590;2022-11-04T07:06:59;17.20;;;8.80;;
51527;SDS011;37612;51.768;21.590;2022-11-04T07:11:00;15.00;;;7.40;;
51527;SDS011;37612;51.768;21.590;2022-11-04T07:15:02;13.60;;;7.10;;
51527;SDS011;37612;51.768;21.590;2022-11-04T07:19:04;14.20;;;7.10;;
51527;SDS011;37612;51.768;21.590;2022-11-04T07:23:06;15.80;;;7.70;;
51527;SDS011;37612;51.768;21.590;2022-11-04T07:27:08;17.20;;;7.60;;
51527;SDS011;37612;51.768;21.590;2022-11-04T07:31:09;18.00;;;6.40;;
51527;SDS011;37612;51.768;21.590;2022-11-04T07:35:12;11.30;;;6.50;;
51527;SDS011;37612;51.768;21.590;2022-11-04T07:39:13;12.90;;;6.80;;
51527;SDS011;37612;51.768;21.590;2022-11-04T07:43:14;14.00;;;8.30;;
51527;SDS011;37612;51.768;21.590;2022-11-04T07:47:16;14.20;;;8.20;;
51527;SDS011;37612;51.768;21.590;2022-11-04T07:51:18;17.80;;;8.30;;
51527;SDS011;37612;51.768;21.590;2022-11-04T07:55:20;12.30;;;6.70;;
51527;SDS011;37612;51.768;21.590;2022-11-04T07:59:22;11.80;;;6.60;;
51527;SDS011;37612;51.768;21.590;2022-11-04T08:03:23;15.60;;;7.80;;
51527;SDS011;37612;51.768;21.590;2022-11-04T08:07:24;12.10;;;7.20;;
51527;SDS011;37612;51.768;21.590;2022-11-04T08:11:25;14.10;;;6.80;;
51527;SDS011;37612;51.768;21.590;2022-11-04T08:15:28;15.70;;;7.50;;
51527;SDS011;37612;51.768;21.590;2022-11-04T08:19:29;14.20;;;7.10;;
51527;SDS011;37612;51.768;21.590;2022-11-04T08:23:31;12.00;;;6.60;;
51527;SDS011;37612;51.768;21.590;2022-11-04T08:27:34;14.60;;;5.90;;
51527;SDS011;37612;51.768;21.590;2022-11-04T08:31:35;14.80;;;7.00;;
51527;SDS011;37612;51.768;21.590;2022-11-04T08:35:37;18.10;;;7.00;;
51527;SDS011;37612;51.768;21.590;2022-11-04T08:39:41;15.20;;;7.20;;
51527;SDS011;37612;51.768;21.590;2022-11-04T08:43:43;13.40;;;7.60;;
51527;SDS011;37612;51.768;21.590;2022-11-04T08:47:45;14.20;;;7.40;;
51527;SDS011;37612;51.768;21.590;2022-11-04T08:51:48;12.50;;;7.60;;
51527;SDS011;37612;51.768;21.590;2022-11-04T08:55:56;14.10;;;7.30;;
51527;SDS011;37612;51.768;21.590;2022-11-04T08:59:57;14.20;;;7.70;;
51527;SDS011;37612;51.768;21.590;2022-11-04T09:03:59;13.50;;;7.30;;
51527;SDS011;37612;51.768;21.590;2022-11-04T09:08:00;16.00;;;6.90;;
51527;SDS011;37612;51.768;21.590;2022-11-04T09:12:01;11.50;;;6.10;;
51527;SDS011;37612;51.768;21.590;2022-11-04T09:16:02;12.40;;;6.40;;
51527;SDS011;37612;51.768;21.590;2022-11-04T09:20:04;11.10;;;6.30;;
51527;SDS011;37612;51.768;21.590;2022-11-04T09:24:06;13.30;;;7.20;;
51527;SDS011;37612;51.768;21.590;2022-11-04T09:28:08;18.10;;;6.60;;
51527;SDS011;37612;51.768;21.590;2022-11-04T09:32:09;14.10;;;6.70;;
51527;SDS011;37612;51.768;21.590;2022-11-04T09:36:11;17.10;;;6.80;;
51527;SDS011;37612;51.768;21.590;2022-11-04T09:44:26;14.30;;;7.00;;
51527;SDS011;37612;51.768;21.590;2022-11-04T09:48:49;19.10;;;8.30;;
51527;SDS011;37612;51.768;21.590;2022-11-04T09:52:54;11.30;;;6.90;;
51527;SDS011;37612;51.768;21.590;2022-11-04T09:57:01;15.10;;;6.90;;
51527;SDS011;37612;51.768;21.590;2022-11-04T10:01:08;14.60;;;7.50;;
51527;SDS011;37612;51.768;21.590;2022-11-04T10:09:56;14.20;;;6.90;;
51527;SDS011;37612;51.768;21.590;2022-11-04T10:18:11;15.60;;;7.20;;
51527;SDS011;37612;51.768;21.590;2022-11-04T10:22:36;14.40;;;7.00;;
51527;SDS011;37612;51.768;21.590;2022-11-04T10:27:03;11.90;;;6.60;;
51527;SDS011;37612;51.768;21.590;2022-11-04T10:31:10;13.80;;;6.60;;
51527;SDS011;37612;51.768;21.590;2022-11-04T10:39:31;15.90;;;6.90;;
51527;SDS011;37612;51.768;21.590;2022-11-04T10:43:37;11.00;;;5.30;;
51527;SDS011;37612;51.768;21.590;2022-11-04T10:47:45;12.60;;;6.30;;
51527;SDS011;37612;51.768;21.590;2022-11-04T10:51:57;10.20;;;5.80;;
51527;SDS011;37612;51.768;21.590;2022-11-04T11:00:38;13.40;;;6.90;;
51527;SDS011;37612;51.768;21.590;2022-11-04T11:04:40;12.90;;;6.70;;
51527;SDS011;37612;51.768;21.590;2022-11-04T11:08:44;11.20;;;6.10;;
51527;SDS011;37612;51.768;21.590;2022-11-04T11:13:06;12.80;;;7.10;;
51527;SDS011;37612;51.768;21.590;2022-11-04T11:21:41;11.90;;;5.00;;
51527;SDS011;37612;51.768;21.590;2022-11-04T11:25:50;13.10;;;6.70;;
51527;SDS011;37612;51.768;21.590;2022-11-04T11:29:52;11.30;;;5.80;;
51527;SDS011;37612;51.768;21.590;2022-11-04T11:33:56;13.10;;;6.20;;
51527;SDS011;37612;51.768;21.590;2022-11-04T11:38:00;12.20;;;6.20;;
51527;SDS011;37612;51.768;21.590;2022-11-04T11:46:12;12.10;;;6.10;;
51527;SDS011;37612;51.768;21.590;2022-11-04T11:54:35;11.90;;;6.20;;
51527;SDS011;37612;51.768;21.590;2022-11-04T11:58:48;14.60;;;7.20;;
51527;SDS011;37612;51.768;21.590;2022-11-04T12:07:25;11.20;;;6.00;;
51527;SDS011;37612;51.768;21.590;2022-11-04T12:11:27;12.10;;;5.90;;
51527;SDS011;37612;51.768;21.590;2022-11-04T12:15:44;12.40;;;6.80;;
51527;SDS011;37612;51.768;21.590;2022-11-04T12:24:27;12.30;;;6.30;;
51527;SDS011;37612;51.768;21.590;2022-11-04T12:33:21;16.80;;;6.80;;
51527;SDS011;37612;51.768;21.590;2022-11-04T12:54:44;12.00;;;5.80;;
51527;SDS011;37612;51.768;21.590;2022-11-04T13:03:32;9.10;;;5.60;;
51527;SDS011;37612;51.768;21.590;2022-11-04T13:08:04;15.80;;;5.90;;
51527;SDS011;37612;51.768;21.590;2022-11-04T13:12:19;15.20;;;6.20;;
51527;SDS011;37612;51.768;21.590;2022-11-04T13:16:23;12.70;;;6.20;;
51527;SDS011;37612;51.768;21.590;2022-11-04T13:20:26;10.00;;;5.80;;
51527;SDS011;37612;51.768;21.590;2022-11-04T13:24:34;12.40;;;5.20;;
51527;SDS011;37612;51.768;21.590;2022-11-04T13:28:40;14.60;;;5.90;;
51527;SDS011;37612;51.768;21.590;2022-11-04T13:33:19;10.90;;;5.70;;
51527;SDS011;37612;51.768;21.590;2022-11-04T13:42:22;12.30;;;5.40;;
51527;SDS011;37612;51.768;21.590;2022-11-04T13:46:33;9.90;;;5.80;;
51527;SDS011;37612;51.768;21.590;2022-11-04T13:50:36;15.50;;;7.00;;
51527;SDS011;37612;51.768;21.590;2022-11-04T13:58:53;10.30;;;6.20;;
51527;SDS011;37612;51.768;21.590;2022-11-04T14:03:49;11.80;;;5.90;;
51527;SDS011;37612;51.768;21.590;2022-11-04T14:08:06;9.60;;;5.40;;
51527;SDS011;37612;51.768;21.590;2022-11-04T14:20:27;14.40;;;6.50;;
51527;SDS011;37612;51.768;21.590;2022-11-04T14:24:31;10.70;;;6.30;;
51527;SDS011;37612;51.768;21.590;2022-11-04T14:28:32;12.80;;;6.30;;
51527;SDS011;37612;51.768;21.590;2022-11-04T14:32:38;11.00;;;6.30;;
51527;SDS011;37612;51.768;21.590;2022-11-04T14:36:41;12.80;;;6.70;;
51527;SDS011;37612;51.768;21.590;2022-11-04T14:40:44;14.30;;;6.90;;
51527;SDS011;37612;51.768;21.590;2022-11-04T14:44:47;12.70;;;7.20;;
51527;SDS011;37612;51.768;21.590;2022-11-04T14:48:52;17.80;;;7.10;;
51527;SDS011;37612;51.768;21.590;2022-11-04T14:52:56;12.90;;;6.70;;
51527;SDS011;37612;51.768;21.590;2022-11-04T14:57:13;17.80;;;6.90;;
51527;SDS011;37612;51.768;21.590;2022-11-04T15:01:15;15.50;;;7.40;;
51527;SDS011;37612;51.768;21.590;2022-11-04T15:05:21;12.40;;;6.80;;
51527;SDS011;37612;51.768;21.590;2022-11-04T15:17:43;16.00;;;9.10;;
51527;SDS011;37612;51.768;21.590;2022-11-04T15:21:45;13.90;;;7.40;;
51527;SDS011;37612;51.768;21.590;2022-11-04T15:25:49;18.10;;;9.00;;
51527;SDS011;37612;51.768;21.590;2022-11-04T15:29:55;17.60;;;9.30;;
51527;SDS011;37612;51.768;21.590;2022-11-04T15:34:04;17.30;;;8.90;;
51527;SDS011;37612;51.768;21.590;2022-11-04T15:38:08;19.30;;;8.90;;
51527;SDS011;37612;51.768;21.590;2022-11-04T15:42:17;19.80;;;8.90;;
51527;SDS011;37612;51.768;21.590;2022-11-04T15:46:39;22.70;;;9.70;;
51527;SDS011;37612;51.768;21.590;2022-11-04T15:50:40;22.70;;;9.70;;
51527;SDS011;37612;51.768;21.590;2022-11-04T15:58:46;18.60;;;9.20;;
51527;SDS011;37612;51.768;21.590;2022-11-04T16:02:58;17.40;;;9.70;;
51527;SDS011;37612;51.768;21.590;2022-11-04T16:11:25;18.90;;;10.30;;
51527;SDS011;37612;51.768;21.590;2022-11-04T16:15:34;19.50;;;9.70;;
51527;SDS011;37612;51.768;21.590;2022-11-04T16:19:48;17.80;;;8.80;;
51527;SDS011;37612;51.768;21.590;2022-11-04T16:23:55;18.80;;;9.10;;
51527;SDS011;37612;51.768;21.590;2022-11-04T16:28:00;22.90;;;10.10;;
51527;SDS011;37612;51.768;21.590;2022-11-04T16:36:23;20.20;;;10.20;;
51527;SDS011;37612;51.768;21.590;2022-11-04T16:40:25;19.80;;;10.60;;
51527;SDS011;37612;51.768;21.590;2022-11-04T16:44:27;22.10;;;10.70;;
51527;SDS011;37612;51.768;21.590;2022-11-04T16:48:28;20.50;;;11.40;;
51527;SDS011;37612;51.768;21.590;2022-11-04T16:52:29;19.60;;;9.40;;
51527;SDS011;37612;51.768;21.590;2022-11-04T16:56:30;28.80;;;12.00;;
51527;SDS011;37612;51.768;21.590;2022-11-04T17:00:33;19.50;;;11.60;;
51527;SDS011;37612;51.768;21.590;2022-11-04T17:04:34;23.20;;;12.90;;
51527;SDS011;37612;51.768;21.590;2022-11-04T17:08:36;20.20;;;10.90;;
51527;SDS011;37612;51.768;21.590;2022-11-04T17:12:41;22.90;;;10.00;;
51527;SDS011;37612;51.768;21.590;2022-11-04T17:16:43;21.30;;;11.40;;
51527;SDS011;37612;51.768;21.590;2022-11-04T17:20:46;15.80;;;10.00;;
51527;SDS011;37612;51.768;21.590;2022-11-04T17:24:49;18.70;;;11.30;;
51527;SDS011;37612;51.768;21.590;2022-11-04T17:28:54;20.60;;;10.40;;
51527;SDS011;37612;51.768;21.590;2022-11-04T17:32:55;21.50;;;11.20;;
51527;SDS011;37612;51.768;21.590;2022-11-04T17:36:56;25.80;;;11.60;;
51527;SDS011;37612;51.768;21.590;2022-11-04T17:40:57;18.80;;;11.30;;
51527;SDS011;37612;51.768;21.590;2022-11-04T17:45:17;26.50;;;12.30;;
51527;SDS011;37612;51.768;21.590;2022-11-04T17:49:20;24.60;;;12.80;;
51527;SDS011;37612;51.768;21.590;2022-11-04T17:53:25;26.40;;;11.90;;
51527;SDS011;37612;51.768;21.590;2022-11-04T17:57:28;19.90;;;10.30;;
51527;SDS011;37612;51.768;21.590;2022-11-04T18:01:29;20.20;;;10.70;;
51527;SDS011;37612;51.768;21.590;2022-11-04T18:05:32;21.90;;;11.60;;
51527;SDS011;37612;51.768;21.590;2022-11-04T18:09:33;19.40;;;10.30;;
51527;SDS011;37612;51.768;21.590;2022-11-04T18:13:36;21.60;;;10.70;;
51527;SDS011;37612;51.768;21.590;2022-11-04T18:17:41;19.90;;;10.00;;
51527;SDS011;37612;51.768;21.590;2022-11-04T18:21:44;20.80;;;11.20;;
51527;SDS011;37612;51.768;21.590;2022-11-04T18:25:45;22.70;;;10.80;;
51527;SDS011;37612;51.768;21.590;2022-11-04T18:29:46;20.50;;;10.70;;
51527;SDS011;37612;51.768;21.590;2022-11-04T18:33:47;22.20;;;10.70;;
51527;SDS011;37612;51.768;21.590;2022-11-04T18:37:50;20.80;;;10.70;;
51527;SDS011;37612;51.768;21.590;2022-11-04T18:41:51;23.00;;;10.90;;
51527;SDS011;37612;51.768;21.590;2022-11-04T18:45:52;23.50;;;12.40;;
51527;SDS011;37612;51.768;21.590;2022-11-04T18:49:53;23.40;;;11.60;;
51527;SDS011;37612;51.768;21.590;2022-11-04T18:53:55;26.90;;;13.90;;
51527;SDS011;37612;51.768;21.590;2022-11-04T18:57:56;20.10;;;10.70;;
51527;SDS011;37612;51.768;21.590;2022-11-04T19:01:57;24.20;;;11.40;;
51527;SDS011;37612;51.768;21.590;2022-11-04T19:06:02;27.30;;;12.40;;
51527;SDS011;37612;51.768;21.590;2022-11-04T19:10:05;68.70;;;31.70;;
51527;SDS011;37612;51.768;21.590;2022-11-04T19:14:08;35.20;;;16.30;;
51527;SDS011;37612;51.768;21.590;2022-11-04T19:18:12;30.90;;;16.00;;
51527;SDS011;37612;51.768;21.590;2022-11-04T19:22:15;39.10;;;15.60;;
51527;SDS011;37612;51.768;21.590;2022-11-04T19:26:17;26.60;;;14.00;;
51527;SDS011;37612;51.768;21.590;2022-11-04T19:30:21;25.00;;;13.20;;
51527;SDS011;37612;51.768;21.590;2022-11-04T19:34:22;27.10;;;12.50;;
51527;SDS011;37612;51.768;21.590;2022-11-04T19:38:24;21.20;;;12.60;;
51527;SDS011;37612;51.768;21.590;2022-11-04T19:42:26;20.20;;;11.00;;
51527;SDS011;37612;51.768;21.590;2022-11-04T19:46:45;23.10;;;11.10;;
51527;SDS011;37612;51.768;21.590;2022-11-04T19:50:47;19.80;;;11.30;;
51527;SDS011;37612;51.768;21.590;2022-11-04T19:54:49;19.90;;;10.60;;
51527;SDS011;37612;51.768;21.590;2022-11-04T19:58:50;22.00;;;10.50;;
51527;SDS011;37612;51.768;21.590;2022-11-04T20:02:51;17.60;;;8.50;;
51527;SDS011;37612;51.768;21.590;2022-11-04T20:06:52;23.10;;;11.10;;
51527;SDS011;37612;51.768;21.590;2022-11-04T20:10:53;20.80;;;10.10;;
51527;SDS011;37612;51.768;21.590;2022-11-04T20:14:55;20.20;;;10.50;;
51527;SDS011;37612;51.768;21.590;2022-11-04T20:18:58;22.50;;;8.90;;
51527;SDS011;37612;51.768;21.590;2022-11-04T20:23:01;23.60;;;9.90;;
51527;SDS011;37612;51.768;21.590;2022-11-04T20:27:02;20.80;;;9.80;;
51527;SDS011;37612;51.768;21.590;2022-11-04T20:31:10;24.40;;;11.90;;
51527;SDS011;37612;51.768;21.590;2022-11-04T20:35:13;21.50;;;10.40;;
51527;SDS011;37612;51.768;21.590;2022-11-04T20:39:16;20.70;;;10.50;;
51527;SDS011;37612;51.768;21.590;2022-11-04T20:43:18;19.90;;;10.50;;
51527;SDS011;37612;51.768;21.590;2022-11-04T20:47:20;20.90;;;11.40;;
51527;SDS011;37612;51.768;21.590;2022-11-04T20:51:22;20.50;;;10.70;;
51527;SDS011;37612;51.768;21.590;2022-11-04T20:55:28;19.60;;;9.10;;
51527;SDS011;37612;51.768;21.590;2022-11-04T20:59:29;22.20;;;10.80;;
51527;SDS011;37612;51.768;21.590;2022-11-04T21:03:31;26.80;;;10.50;;
51527;SDS011;37612;51.768;21.590;2022-11-04T21:07:33;22.20;;;10.80;;
51527;SDS011;37612;51.768;21.590;2022-11-04T21:11:36;15.70;;;9.60;;
51527;SDS011;37612;51.768;21.590;2022-11-04T21:15:39;22.70;;;11.50;;
51527;SDS011;37612;51.768;21.590;2022-11-04T21:19:42;20.20;;;11.30;;
51527;SDS011;37612;51.768;21.590;2022-11-04T21:23:44;23.60;;;10.70;;
51527;SDS011;37612;51.768;21.590;2022-11-04T21:27:48;22.60;;;10.70;;
51527;SDS011;37612;51.768;21.590;2022-11-04T21:31:50;19.20;;;10.40;;
51527;SDS011;37612;51.768;21.590;2022-11-04T21:35:51;20.70;;;12.10;;
51527;SDS011;37612;51.768;21.590;2022-11-04T21:39:53;18.50;;;9.40;;
51527;SDS011;37612;51.768;21.590;2022-11-04T21:43:58;22.60;;;11.40;;
51527;SDS011;37612;51.768;21.590;2022-11-04T21:48:02;21.10;;;11.50;;
51527;SDS011;37612;51.768;21.590;2022-11-04T21:52:03;20.50;;;11.90;;
51527;SDS011;37612;51.768;21.590;2022-11-04T21:56:06;26.20;;;10.80;;
51527;SDS011;37612;51.768;21.590;2022-11-04T22:00:10;23.10;;;12.10;;
51527;SDS011;37612;51.768;21.590;2022-11-04T22:04:15;20.80;;;12.20;;
51527;SDS011;37612;51.768;21.590;2022-11-04T22:08:16;24.80;;;12.00;;
51527;SDS011;37612;51.768;21.590;2022-11-04T22:12:17;19.00;;;11.00;;
51527;SDS011;37612;51.768;21.590;2022-11-04T22:16:20;25.40;;;11.90;;
51527;SDS011;37612;51.768;21.590;2022-11-04T22:20:22;24.70;;;12.70;;
51527;SDS011;37612;51.768;21.590;2022-11-04T22:24:23;18.30;;;11.30;;
51527;SDS011;37612;51.768;21.590;2022-11-04T22:28:24;21.00;;;10.20;;
51527;SDS011;37612;51.768;21.590;2022-11-04T22:32:26;21.00;;;11.20;;
51527;SDS011;37612;51.768;21.590;2022-11-04T22:36:29;21.20;;;11.70;;
51527;SDS011;37612;51.768;21.590;2022-11-04T22:40:31;25.90;;;12.30;;
51527;SDS011;37612;51.768;21.590;2022-11-04T22:44:33;25.60;;;12.90;;
51527;SDS011;37612;51.768;21.590;2022-11-04T22:48:34;19.80;;;11.20;;
51527;SDS011;37612;51.768;21.590;2022-11-04T22:52:37;23.30;;;11.00;;
51527;SDS011;37612;51.768;21.590;2022-11-04T22:56:38;21.00;;;11.40;;
51527;SDS011;37612;51.768;21.590;2022-11-04T23:00:39;26.10;;;12.10;;
51527;SDS011;37612;51.768;21.590;2022-11-04T23:04:41;20.50;;;11.70;;
51527;SDS011;37612;51.768;21.590;2022-11-04T23:08:42;19.80;;;10.90;;
51527;SDS011;37612;51.768;21.590;2022-11-04T23:12:44;20.20;;;10.90;;
51527;SDS011;37612;51.768;21.590;2022-11-04T23:21:35;25.70;;;12.00;;
51527;SDS011;37612;51.768;21.590;2022-11-04T23:25:56;27.00;;;13.10;;
51527;SDS011;37612;51.768;21.590;2022-11-04T23:29:58;22.70;;;11.20;;
51527;SDS011;37612;51.768;21.590;2022-11-04T23:34:19;21.30;;;11.30;;
51527;SDS011;37612;51.768;21.590;2022-11-04T23:38:38;24.60;;;12.40;;
51527;SDS011;37612;51.768;21.590;2022-11-04T23:42:40;23.70;;;11.30;;
51527;SDS011;37612;51.768;21.590;2022-11-04T23:46:41;19.00;;;11.60;;
51527;SDS011;37612;51.768;21.590;2022-11-04T23:51:00;25.80;;;12.00;;
51527;SDS011;37612;51.768;21.590;2022-11-04T23:55:20;22.90;;;11.70;;
51527;SDS011;37612;51.768;21.590;2022-11-04T23:59:40;25.10;;;12.40;;
